createdAt,value
2023-01-11T00:01:56.607Z,96370.53
2023-01-11T00:04:29.931Z,96371.34
2023-01-11T00:06:57.611Z,96372.69
2023-01-11T00:09:24.211Z,96369.25
2023-01-11T00:11:51.007Z,96362.38
2023-01-11T00:14:17.848Z,96359.59
2023-01-11T00:16:44.232Z,96354.19
2023-01-11T00:19:10.600Z,96357.34
2023-01-11T00:21:37.413Z,96358.16
2023-01-11T00:24:04.017Z,96361.56
2023-01-11T00:26:30.350Z,96359.66
2023-01-11T00:28:57.141Z,96358.81
2023-01-11T00:31:23.556Z,96351.31
2023-01-11T00:33:50.415Z,96351.81
2023-01-11T00:36:16.775Z,96367.53
2023-01-11T00:38:54.281Z,96358.72
2023-01-11T00:41:40.674Z,96357.25
2023-01-11T00:44:27.919Z,96349.22
2023-01-11T00:47:12.600Z,96357.78
2023-01-11T00:49:39.673Z,96352.53
2023-01-11T00:52:08.862Z,96347.59
2023-01-11T00:54:36.786Z,96344.81
2023-01-11T00:57:04.217Z,96346.47
2023-01-11T00:59:30.573Z,96340.41
2023-01-11T01:01:57.313Z,96336.13
2023-01-11T01:04:24.164Z,96334.34
2023-01-11T01:06:50.662Z,96329.09
2023-01-11T01:09:17.030Z,96326.34
2023-01-11T01:11:43.862Z,96328.78
2023-01-11T01:14:25.963Z,96316.66
2023-01-11T01:16:53.942Z,96315.84
2023-01-11T01:19:21.707Z,96321.91
2023-01-11T01:21:49.772Z,96315.84
2023-01-11T01:24:16.932Z,96308.66
2023-01-11T01:26:43.276Z,96306.69
2023-01-11T01:29:09.593Z,96287.34
2023-01-11T01:31:36.112Z,96295.84
2023-01-11T01:34:02.461Z,96297.44
2023-01-11T01:36:29.180Z,96303.28
2023-01-11T01:38:55.570Z,96298.06
2023-01-11T01:41:21.962Z,96303.28
2023-01-11T01:43:57.792Z,96306.44
2023-01-11T01:46:32.157Z,96304.84
2023-01-11T01:49:10.733Z,96296.16
2023-01-11T01:51:51.209Z,96297.66
2023-01-11T01:54:24.504Z,96287.69
2023-01-11T01:57:00.064Z,96293.59
2023-01-11T01:59:29.918Z,96293.00
2023-01-11T02:01:57.449Z,96288.09
2023-01-11T02:04:28.806Z,96288.09
2023-01-11T02:06:59.981Z,96276.34
2023-01-11T02:09:36.274Z,96273.72
2023-01-11T02:12:04.809Z,96267.81
2023-01-11T02:14:32.715Z,96264.88
2023-01-11T02:16:59.187Z,96254.72
2023-01-11T02:19:41.441Z,96250.78
2023-01-11T02:22:57.263Z,96242.44
2023-01-11T02:25:45.466Z,96240.44
2023-01-11T02:28:19.677Z,96241.09
2023-01-11T02:30:52.222Z,96242.25
2023-01-11T02:33:41.473Z,96237.81
2023-01-11T02:36:40.111Z,96223.56
2023-01-11T02:39:31.600Z,96217.50
2023-01-11T02:42:27.087Z,96213.09
2023-01-11T02:45:02.876Z,96213.72
2023-01-11T02:47:43.932Z,96208.47
2023-01-11T02:50:19.010Z,96213.75
2023-01-11T02:52:53.284Z,96218.81
2023-01-11T02:55:25.927Z,96212.94
2023-01-11T02:57:55.565Z,96212.09
2023-01-11T03:00:23.155Z,96213.06
2023-01-11T03:03:06.769Z,96229.94
2023-01-11T03:05:37.896Z,96221.75
2023-01-11T03:08:33.378Z,96225.53
2023-01-11T03:11:09.981Z,96230.59
2023-01-11T03:14:04.049Z,96229.16
2023-01-11T03:16:43.209Z,96232.06
2023-01-11T03:19:48.395Z,96220.28
2023-01-11T03:22:23.327Z,96219.78
2023-01-11T03:24:55.967Z,96220.59
2023-01-11T03:27:33.360Z,96220.44
2023-01-11T03:30:12.165Z,96218.66
2023-01-11T03:32:48.533Z,96225.38
2023-01-11T03:35:19.551Z,96225.84
2023-01-11T03:38:06.071Z,96214.53
2023-01-11T03:40:40.800Z,96201.91
2023-01-11T03:43:10.814Z,96199.47
2023-01-11T03:45:52.676Z,96191.25
2023-01-11T03:48:29.538Z,96184.19
2023-01-11T03:50:58.285Z,96179.75
2023-01-11T03:53:27.262Z,96183.84
2023-01-11T03:55:56.851Z,96171.50
2023-01-11T03:58:26.629Z,96163.31
2023-01-11T04:00:56.052Z,96170.03
2023-01-11T04:03:22.558Z,96164.78
2023-01-11T04:05:53.747Z,96170.72
2023-01-11T04:08:20.231Z,96187.25
2023-01-11T04:10:46.575Z,96183.66
2023-01-11T04:13:13.271Z,96184.63
2023-01-11T04:15:39.596Z,96181.97
2023-01-11T04:18:06.409Z,96163.75
2023-01-11T04:20:35.826Z,96192.47
2023-01-11T04:23:02.750Z,96172.28
2023-01-11T04:25:29.189Z,96169.50
2023-01-11T04:27:55.937Z,96165.38
2023-01-11T04:30:22.601Z,96172.22
2023-01-11T04:32:49.018Z,96174.34
2023-01-11T04:35:15.743Z,96171.53
2023-01-11T04:37:42.155Z,96170.88
2023-01-11T04:40:09.412Z,96164.09
2023-01-11T04:42:36.291Z,96162.56
2023-01-11T04:45:05.957Z,96167.56
2023-01-11T04:47:32.544Z,96160.41
2023-01-11T04:49:59.437Z,96165.50
2023-01-11T04:52:26.186Z,96160.88
2023-01-11T04:54:53.866Z,96155.34
2023-01-11T04:57:20.443Z,96156.78
2023-01-11T04:59:47.183Z,96172.91
2023-01-11T05:02:14.885Z,96169.13
2023-01-11T05:04:43.058Z,96163.38
2023-01-11T05:07:10.688Z,96162.28
2023-01-11T05:09:37.027Z,96161.44
2023-01-11T05:12:03.734Z,96154.03
2023-01-11T05:14:30.401Z,96153.19
2023-01-11T05:16:56.890Z,96157.16
2023-01-11T05:19:23.287Z,96154.66
2023-01-11T05:21:49.667Z,96153.63
2023-01-11T05:24:16.713Z,96144.25
2023-01-11T05:26:44.997Z,96152.22
2023-01-11T05:29:16.599Z,96149.94
2023-01-11T05:31:43.608Z,96164.34
2023-01-11T05:34:12.832Z,96150.56
2023-01-11T05:36:40.216Z,96147.59
2023-01-11T05:39:07.109Z,96151.41
2023-01-11T05:41:34.397Z,96137.13
2023-01-11T05:44:19.418Z,96134.47
2023-01-11T05:46:46.109Z,96144.44
2023-01-11T05:49:13.882Z,96143.63
2023-01-11T05:51:42.156Z,96141.19
2023-01-11T05:54:12.438Z,96140.00
2023-01-11T05:56:39.200Z,96138.38
2023-01-11T05:59:05.959Z,96124.59
2023-01-11T06:01:32.322Z,96110.16
2023-01-11T06:03:58.739Z,96094.28
2023-01-11T06:06:25.550Z,96098.34
2023-01-11T06:08:52.257Z,96078.50
2023-01-11T06:11:19.033Z,96075.91
2023-01-11T06:13:45.519Z,96064.66
2023-01-11T06:16:15.052Z,96052.03
2023-01-11T06:18:45.549Z,96064.25
2023-01-11T06:21:13.543Z,96094.34
2023-01-11T06:23:43.203Z,96105.72
2023-01-11T06:26:12.774Z,96111.00
2023-01-11T06:28:39.429Z,96104.84
2023-01-11T06:31:06.125Z,96111.94
2023-01-11T06:33:33.304Z,96103.44
2023-01-11T06:36:04.175Z,96109.47
2023-01-11T06:38:30.938Z,96100.13
2023-01-11T06:41:00.868Z,96096.88
2023-01-11T06:43:28.428Z,96087.16
2023-01-11T06:45:55.827Z,96088.19
2023-01-11T06:48:22.862Z,96097.34
2023-01-11T06:50:50.659Z,96096.38
2023-01-11T06:53:18.397Z,96093.34
2023-01-11T06:55:45.165Z,96100.25
2023-01-11T06:58:11.848Z,96101.06
2023-01-11T07:00:38.680Z,96116.09
2023-01-11T07:03:06.796Z,96122.69
2023-01-11T07:05:34.774Z,96129.09
2023-01-11T07:08:01.843Z,96130.13
2023-01-11T07:10:28.684Z,96130.47
2023-01-11T07:12:55.233Z,96134.09
2023-01-11T07:15:22.756Z,96141.03
2023-01-11T07:17:56.080Z,96134.31
2023-01-11T07:20:24.133Z,96138.88
2023-01-11T07:22:51.439Z,96140.19
2023-01-11T07:25:18.201Z,96136.34
2023-01-11T07:27:45.007Z,96128.78
2023-01-11T07:30:11.927Z,96122.59
2023-01-11T07:32:38.435Z,96117.06
2023-01-11T07:35:05.514Z,96098.00
2023-01-11T07:37:35.132Z,96099.59
2023-01-11T07:40:01.507Z,96102.19
2023-01-11T07:42:46.775Z,96107.78
2023-01-11T07:45:13.205Z,96096.41
2023-01-11T07:47:39.566Z,96106.75
2023-01-11T07:50:06.987Z,96117.75
2023-01-11T07:52:33.324Z,96112.50
2023-01-11T07:55:02.926Z,96115.50
2023-01-11T07:57:30.355Z,96112.69
2023-01-11T07:59:57.207Z,96115.00
2023-01-11T08:02:24.028Z,96111.41
2023-01-11T08:04:50.791Z,96103.88
2023-01-11T08:07:17.145Z,96097.97
2023-01-11T08:09:43.567Z,96091.13
2023-01-11T08:12:28.384Z,96098.94
2023-01-11T08:14:54.804Z,96089.31
2023-01-11T08:17:21.527Z,96097.44
2023-01-11T08:19:47.951Z,96088.72
2023-01-11T08:22:14.449Z,96093.59
2023-01-11T08:24:40.914Z,96103.72
2023-01-11T08:27:07.842Z,96104.00
2023-01-11T08:29:34.396Z,96104.50
2023-01-11T08:32:00.943Z,96123.53
2023-01-11T08:34:29.246Z,96113.84
2023-01-11T08:36:57.481Z,96102.16
2023-01-11T08:39:25.069Z,96107.16
2023-01-11T08:41:51.458Z,96105.81
2023-01-11T08:44:29.048Z,96097.06
2023-01-11T08:46:59.800Z,96110.94
2023-01-11T08:49:26.267Z,96109.63
2023-01-11T08:51:52.762Z,96114.63
2023-01-11T08:54:19.577Z,96116.97
2023-01-11T08:56:46.326Z,96110.88
2023-01-11T08:59:12.826Z,96120.69
2023-01-11T09:01:40.066Z,96110.97
2023-01-11T09:04:19.185Z,96116.28
2023-01-11T09:06:50.600Z,96109.28
2023-01-11T09:09:17.113Z,96110.66
2023-01-11T09:11:57.145Z,96112.69
2023-01-11T09:14:25.692Z,96112.69
2023-01-11T09:16:53.475Z,96099.63
2023-01-11T09:19:20.786Z,96102.00
2023-01-11T09:21:47.706Z,96108.09
2023-01-11T09:24:14.605Z,96098.81
2023-01-11T09:26:43.437Z,96103.72
2023-01-11T09:29:11.086Z,96102.72
2023-01-11T09:31:37.977Z,96113.53
2023-01-11T09:34:05.782Z,96113.25
2023-01-11T09:36:35.752Z,96113.16
2023-01-11T09:39:06.071Z,96108.88
2023-01-11T09:41:35.510Z,96108.81
2023-01-11T09:44:16.800Z,96109.44
2023-01-11T09:46:49.170Z,96111.44
2023-01-11T09:49:23.125Z,96108.41
2023-01-11T09:51:51.866Z,96104.44
2023-01-11T09:54:27.136Z,96094.25
2023-01-11T09:57:29.516Z,96081.56
2023-01-11T10:00:19.485Z,96080.53
2023-01-11T10:02:46.291Z,96080.66
2023-01-11T10:05:42.380Z,96077.75
2023-01-11T10:18:25.385Z,96069.84
2023-01-11T10:18:32.623Z,96051.50
2023-01-11T10:21:18.526Z,96053.41
2023-01-11T10:24:21.832Z,96042.06
2023-01-11T10:26:51.294Z,96044.50
2023-01-11T10:29:43.068Z,96039.88
2023-01-11T10:32:49.673Z,96036.88
2023-01-11T10:35:47.882Z,96047.03
2023-01-11T10:38:48.881Z,96035.41
2023-01-11T10:41:30.202Z,96035.19
2023-01-11T10:44:23.412Z,96030.91
2023-01-11T10:46:53.325Z,96023.59
2023-01-11T10:49:44.121Z,96028.03
2023-01-11T10:52:51.924Z,96019.88
2023-01-11T10:55:34.751Z,96009.69
2023-01-11T10:58:19.819Z,96011.22
2023-01-11T11:00:51.808Z,96011.41
2023-01-11T11:03:32.279Z,96003.22
2023-01-11T11:06:10.028Z,96010.13
2023-01-11T11:08:42.379Z,96011.38
2023-01-11T11:11:15.096Z,96013.28
2023-01-11T11:13:52.661Z,96013.66
2023-01-11T11:16:22.293Z,96027.28
2023-01-11T11:18:54.206Z,96018.47
2023-01-11T11:21:40.926Z,96022.69
2023-01-11T11:24:17.450Z,96014.16
2023-01-11T11:26:49.994Z,96014.50
2023-01-11T11:29:22.899Z,96013.66
2023-01-11T11:31:51.351Z,96004.38
2023-01-11T11:34:21.007Z,95997.47
2023-01-11T11:36:50.144Z,95991.56
2023-01-11T11:39:29.566Z,95986.66
2023-01-11T11:42:16.020Z,95986.28
2023-01-11T11:44:42.891Z,95994.44
2023-01-11T11:47:15.906Z,95984.47
2023-01-11T11:49:43.885Z,95982.00
2023-01-11T11:52:16.485Z,95978.75
2023-01-11T11:54:56.027Z,95972.69
2023-01-11T11:57:36.104Z,95965.56
2023-01-11T12:00:08.421Z,95957.69
2023-01-11T12:02:41.132Z,95963.03
2023-01-11T12:05:10.631Z,95961.22
2023-01-11T12:07:54.396Z,95957.56
2023-01-11T12:10:25.344Z,95941.59
2023-01-11T12:13:03.033Z,95947.31
2023-01-11T12:15:33.729Z,95931.69
2023-01-11T12:18:26.192Z,95940.22
2023-01-11T12:20:53.493Z,95941.44
2023-01-11T12:23:24.058Z,95939.38
2023-01-11T12:26:14.246Z,95947.50
2023-01-11T12:28:55.521Z,95950.97
2023-01-11T12:31:52.517Z,95944.06
2023-01-11T12:34:50.202Z,95945.47
2023-01-11T12:37:35.226Z,95949.31
2023-01-11T12:40:30.873Z,95941.38
2023-01-11T12:43:17.060Z,95946.03
2023-01-11T12:46:03.235Z,95948.69
2023-01-11T12:49:14.515Z,95939.72
2023-01-11T12:52:03.437Z,95939.88
2023-01-11T12:54:42.227Z,95946.16
2023-01-11T12:57:39.570Z,95941.91
2023-01-11T13:00:30.590Z,95946.75
2023-01-11T13:03:07.539Z,95944.47
2023-01-11T13:05:52.687Z,95948.38
2023-01-11T13:08:44.637Z,95944.88
2023-01-11T13:11:35.155Z,95934.13
2023-01-11T13:14:14.588Z,95936.97
2023-01-11T13:17:19.220Z,95943.25
2023-01-11T13:20:04.470Z,95939.03
2023-01-11T13:22:34.537Z,95941.06
2023-01-11T13:25:11.130Z,95946.69
2023-01-11T13:27:40.203Z,95944.69
2023-01-11T13:30:12.157Z,95942.84
2023-01-11T13:32:40.646Z,95944.84
2023-01-11T13:35:17.114Z,95949.56
2023-01-11T13:37:50.898Z,95943.66
2023-01-11T13:40:27.574Z,95949.94
2023-01-11T13:43:04.128Z,95950.34
2023-01-11T13:45:36.359Z,95945.47
2023-01-11T13:48:35.874Z,95941.81
2023-01-11T13:51:14.154Z,95947.09
2023-01-11T13:53:54.133Z,95949.34
2023-01-11T13:56:30.396Z,95950.56
2023-01-11T13:59:19.959Z,95955.69
2023-01-11T14:01:54.889Z,95949.75
2023-01-11T14:04:25.984Z,95962.38
2023-01-11T14:07:23.698Z,95957.50
2023-01-11T14:10:16.261Z,95954.84
2023-01-11T14:12:59.504Z,95956.88
2023-01-11T14:15:37.616Z,95962.16
2023-01-11T14:18:15.534Z,95965.78
2023-01-11T14:20:44.828Z,95975.16
2023-01-11T14:23:31.178Z,95964.78
2023-01-11T14:26:16.388Z,95971.91
2023-01-11T14:28:58.039Z,95976.97
2023-01-11T14:31:39.888Z,95982.44
2023-01-11T14:34:24.621Z,95995.03
2023-01-11T14:37:13.206Z,95996.22
2023-01-11T14:40:05.487Z,95997.84
2023-01-11T14:42:50.463Z,95995.78
2023-01-11T14:45:29.179Z,96004.50
2023-01-11T14:48:06.451Z,96010.81
2023-01-11T14:50:41.350Z,96015.69
2023-01-11T14:53:09.837Z,96011.19
2023-01-11T14:55:45.522Z,96002.66
2023-01-11T14:58:25.716Z,96015.84
2023-01-11T15:00:54.796Z,96026.59
2023-01-11T15:03:21.214Z,96025.56
2023-01-11T15:06:13.894Z,96022.13
2023-01-11T15:08:44.667Z,96033.69
2023-01-11T15:11:37.197Z,96030.81
2023-01-11T15:14:22.236Z,96042.34
2023-01-11T15:17:12.128Z,96043.13
2023-01-11T15:19:41.776Z,96037.00
2023-01-11T15:22:23.893Z,96038.47
2023-01-11T15:24:57.962Z,96047.16
2023-01-11T15:27:37.207Z,96046.94
2023-01-11T15:30:28.175Z,96048.13
2023-01-11T15:33:15.001Z,96072.69
2023-01-11T15:35:42.026Z,96068.59
2023-01-11T15:38:11.366Z,96069.16
2023-01-11T15:40:43.697Z,96079.50
2023-01-11T15:43:28.918Z,96080.16
2023-01-11T15:46:17.239Z,96076.06
2023-01-11T15:48:54.013Z,96080.72
2023-01-11T15:51:41.800Z,96082.53
2023-01-11T15:54:50.086Z,96087.59
2023-01-11T15:57:41.827Z,96092.63
2023-01-11T16:00:44.725Z,96104.81
2023-01-11T16:03:29.814Z,96106.63
2023-01-11T16:06:09.955Z,96106.56
2023-01-11T16:08:52.198Z,96111.84
2023-01-11T16:11:52.565Z,96116.91
2023-01-11T16:14:19.245Z,96111.56
2023-01-11T16:16:51.647Z,96119.75
2023-01-11T16:19:22.288Z,96135.88
2023-01-11T16:21:55.552Z,96138.00
2023-01-11T16:24:27.182Z,96138.78
2023-01-11T16:26:58.616Z,96147.72
2023-01-11T16:29:29.697Z,96156.81
2023-01-11T16:32:00.859Z,96157.16
2023-01-11T16:34:29.456Z,96164.09
2023-01-11T16:36:57.583Z,96167.97
2023-01-11T16:39:34.112Z,96165.75
2023-01-11T16:42:05.939Z,96174.38
2023-01-11T16:44:58.420Z,96174.25
2023-01-11T16:47:24.829Z,96184.88
2023-01-11T16:50:19.888Z,96185.94
2023-01-11T16:52:49.645Z,96199.66
2023-01-11T16:55:21.328Z,96204.06
2023-01-11T16:57:53.449Z,96195.00
2023-01-11T17:00:36.305Z,96209.97
2023-01-11T17:03:19.595Z,96205.56
2023-01-11T17:06:08.009Z,96195.84
2023-01-11T17:08:39.907Z,96201.41
2023-01-11T17:11:23.778Z,96215.38
2023-01-11T17:14:17.439Z,96219.63
2023-01-11T17:16:54.317Z,96217.84
2023-01-11T17:19:24.741Z,96217.81
2023-01-11T17:21:54.435Z,96218.00
2023-01-11T17:24:25.733Z,96224.84
2023-01-11T17:26:57.152Z,96212.72
2023-01-11T17:29:38.011Z,96218.88
2023-01-11T17:32:07.757Z,96225.75
2023-01-11T17:34:38.794Z,96226.38
2023-01-11T17:37:11.228Z,96219.66
2023-01-11T17:39:49.685Z,96232.69
2023-01-11T17:42:36.025Z,96221.53
2023-01-11T17:45:15.392Z,96228.19
2023-01-11T17:47:45.584Z,96242.38
2023-01-11T17:50:25.120Z,96246.94
2023-01-11T17:53:00.519Z,96243.91
2023-01-11T17:55:27.532Z,96255.69
2023-01-11T17:58:19.818Z,96261.25
2023-01-11T18:01:05.113Z,96272.78
2023-01-11T18:03:42.206Z,96277.31
2023-01-11T18:06:34.166Z,96270.84
2023-01-11T18:09:04.642Z,96281.47
2023-01-11T18:11:41.550Z,96274.28
2023-01-11T18:14:18.415Z,96274.13
2023-01-11T18:17:01.598Z,96273.69
2023-01-11T18:19:42.481Z,96276.97
2023-01-11T18:22:40.977Z,96284.13
2023-01-11T18:25:19.767Z,96282.03
2023-01-11T18:27:47.063Z,96279.31
2023-01-11T18:30:38.156Z,96298.69
2023-01-11T18:33:11.827Z,96299.13
2023-01-11T18:35:44.169Z,96305.63
2023-01-11T18:38:18.934Z,96313.78
2023-01-11T18:40:47.575Z,96314.59
2023-01-11T18:43:14.611Z,96319.75
2023-01-11T18:45:44.711Z,96308.94
2023-01-11T18:48:12.275Z,96319.28
2023-01-11T18:50:40.728Z,96318.97
2023-01-11T18:53:11.443Z,96309.06
2023-01-11T18:55:38.414Z,96305.09
2023-01-11T18:58:05.467Z,96306.44
2023-01-11T19:00:32.588Z,96306.00
2023-01-11T19:02:59.032Z,96304.69
2023-01-11T19:05:25.382Z,96312.63
2023-01-11T19:07:52.324Z,96309.03
2023-01-11T19:10:21.421Z,96310.53
2023-01-11T19:12:47.824Z,96314.69
2023-01-11T19:15:15.575Z,96324.25
2023-01-11T19:17:42.361Z,96317.72
2023-01-11T19:20:10.942Z,96320.50
2023-01-11T19:22:38.224Z,96311.28
2023-01-11T19:25:05.316Z,96314.63
2023-01-11T19:27:31.690Z,96318.00
2023-01-11T19:29:58.558Z,96310.44
2023-01-11T19:32:25.561Z,96312.97
2023-01-11T19:34:52.940Z,96322.44
2023-01-11T19:37:19.832Z,96333.38
2023-01-11T19:39:46.653Z,96329.09
2023-01-11T19:42:13.033Z,96334.41
2023-01-11T19:44:39.915Z,96338.34
2023-01-11T19:47:13.026Z,96338.44
2023-01-11T19:49:41.339Z,96341.59
2023-01-11T19:52:13.381Z,96341.06
2023-01-11T19:54:42.558Z,96353.59
2023-01-11T19:57:23.158Z,96363.06
2023-01-11T19:59:50.672Z,96365.97
2023-01-11T20:02:20.500Z,96367.69
2023-01-11T20:04:47.769Z,96368.66
2023-01-11T20:07:14.731Z,96367.59
2023-01-11T20:09:41.104Z,96371.13
2023-01-11T20:12:10.362Z,96371.78
2023-01-11T20:14:38.049Z,96367.50
2023-01-11T20:17:04.446Z,96381.31
2023-01-11T20:19:31.201Z,96382.22
2023-01-11T20:21:57.594Z,96372.41
2023-01-11T20:24:28.698Z,96370.94
2023-01-11T20:27:00.980Z,96368.16
2023-01-11T20:29:27.803Z,96373.34
2023-01-11T20:31:54.754Z,96368.94
2023-01-11T20:34:21.522Z,96379.28
2023-01-11T20:36:48.780Z,96386.81
2023-01-11T20:39:15.709Z,96390.25
2023-01-11T20:41:48.362Z,96404.34
2023-01-11T20:44:20.379Z,96396.03
2023-01-11T20:46:48.291Z,96404.81
2023-01-11T20:49:16.352Z,96418.09
2023-01-11T20:51:43.425Z,96412.09
2023-01-11T20:54:10.375Z,96422.00
2023-01-11T20:56:38.391Z,96416.78
2023-01-11T20:59:07.678Z,96419.94
2023-01-11T21:01:35.069Z,96409.94
2023-01-11T21:04:09.435Z,96429.72
2023-01-11T21:06:38.462Z,96429.28
2023-01-11T21:09:06.844Z,96428.16
2023-01-11T21:11:33.658Z,96427.06
2023-01-11T21:14:02.031Z,96422.00
2023-01-11T21:16:29.239Z,96428.47
2023-01-11T21:19:03.725Z,96421.50
2023-01-11T21:21:32.485Z,96430.94
2023-01-11T21:24:01.642Z,96424.72
2023-01-11T21:26:29.539Z,96419.44
2023-01-11T21:28:59.841Z,96427.72
2023-01-11T21:31:28.776Z,96438.06
2023-01-11T21:33:55.781Z,96423.75
2023-01-11T21:36:25.485Z,96431.69
2023-01-11T21:38:53.232Z,96425.34
2023-01-11T21:41:41.634Z,96426.00
2023-01-11T21:44:09.447Z,96430.78
2023-01-11T21:46:36.034Z,96443.94
2023-01-11T21:49:02.987Z,96446.59
2023-01-11T21:51:30.009Z,96433.59
2023-01-11T21:53:57.568Z,96446.28
2023-01-11T21:56:24.796Z,96444.81
2023-01-11T21:58:51.638Z,96444.66
2023-01-11T22:01:21.757Z,96446.00
2023-01-11T22:03:48.595Z,96453.03
2023-01-11T22:06:15.916Z,96467.00
2023-01-11T22:08:47.054Z,96465.38
2023-01-11T22:11:15.289Z,96473.28
2023-01-11T22:13:42.681Z,96481.31
2023-01-11T22:16:13.147Z,96495.28
2023-01-11T22:18:41.163Z,96497.56
2023-01-11T22:21:10.174Z,96504.59
2023-01-11T22:23:36.631Z,96514.59
2023-01-11T22:26:09.021Z,96508.00
2023-01-11T22:28:53.849Z,96512.94
2023-01-11T22:31:21.281Z,96512.94
2023-01-11T22:33:48.071Z,96524.44
2023-01-11T22:36:14.860Z,96513.13
2023-01-11T22:38:42.220Z,96517.84
2023-01-11T22:41:09.445Z,96508.22
2023-01-11T22:43:36.285Z,96512.81
2023-01-11T22:46:03.509Z,96503.75
2023-01-11T22:48:31.376Z,96503.72
2023-01-11T22:50:58.753Z,96514.09
2023-01-11T22:53:25.414Z,96506.06
2023-01-11T22:55:51.771Z,96508.22
2023-01-11T22:58:18.110Z,96502.31
2023-01-11T23:00:44.503Z,96492.13
2023-01-11T23:03:11.435Z,96491.25
2023-01-11T23:05:44.226Z,96497.63
2023-01-11T23:08:10.564Z,96498.94
2023-01-11T23:10:37.296Z,96494.34
2023-01-11T23:13:22.858Z,96497.28
2023-01-11T23:15:54.245Z,96495.84
2023-01-11T23:18:21.593Z,96501.75
2023-01-11T23:20:48.291Z,96507.34
2023-01-11T23:23:14.622Z,96503.44
2023-01-11T23:25:40.952Z,96499.34
2023-01-11T23:28:07.693Z,96492.13
2023-01-11T23:30:34.024Z,96504.09
2023-01-11T23:33:00.681Z,96513.66
2023-01-11T23:35:27.024Z,96526.25
2023-01-11T23:37:54.341Z,96513.72
2023-01-11T23:40:20.881Z,96512.88
2023-01-11T23:42:47.210Z,96510.16
2023-01-11T23:45:14.193Z,96498.31
2023-01-11T23:47:40.545Z,96512.72
2023-01-11T23:50:07.753Z,96513.63
2023-01-11T23:52:34.895Z,96518.00
2023-01-11T23:55:01.233Z,96504.19
2023-01-11T23:57:27.692Z,96503.34
2023-01-11T23:59:54.047Z,96504.78
